createdAt,value
2023-10-13T00:04:06.829Z,17.10
2023-10-13T00:14:34.276Z,17.05
2023-10-13T00:24:43.851Z,17.08
2023-10-13T00:34:46.702Z,17.02
2023-10-13T00:44:50.888Z,16.99
2023-10-13T00:54:55.198Z,16.96
2023-10-13T01:04:59.429Z,16.92
2023-10-13T01:15:12.215Z,16.90
2023-10-13T01:25:20.563Z,16.90
2023-10-13T01:35:27.772Z,16.89
2023-10-13T01:45:32.310Z,16.91
2023-10-13T01:55:43.905Z,16.90
2023-10-13T02:05:49.615Z,16.90
2023-10-13T02:15:58.215Z,16.93
2023-10-13T02:26:11.734Z,16.95
2023-10-13T02:36:23.206Z,16.93
2023-10-13T02:46:30.385Z,16.82
2023-10-13T02:56:33.217Z,16.86
2023-10-13T03:06:41.322Z,16.85
2023-10-13T03:16:44.571Z,16.91
2023-10-13T03:26:53.395Z,16.98
2023-10-13T03:36:59.504Z,17.04
2023-10-13T03:47:19.404Z,17.07
2023-10-13T03:57:22.761Z,17.14
2023-10-13T04:08:01.852Z,17.20
2023-10-13T04:18:15.212Z,17.25
2023-10-13T04:28:35.597Z,17.20
2023-10-13T04:38:57.150Z,17.33
2023-10-13T04:49:08.574Z,17.37
2023-10-13T04:59:19.343Z,17.43
2023-10-13T05:09:41.621Z,17.49
2023-10-13T05:20:20.291Z,17.51
2023-10-13T05:30:38.333Z,17.55
2023-10-13T05:41:23.461Z,17.55
2023-10-13T05:51:47.945Z,17.60
2023-10-13T06:02:08.831Z,17.62
2023-10-13T06:12:27.046Z,17.70
2023-10-13T06:22:47.725Z,17.80
2023-10-13T06:32:52.154Z,17.84
2023-10-13T06:42:56.741Z,17.94
2023-10-13T06:53:03.036Z,18.04
2023-10-13T07:03:19.047Z,18.11
2023-10-13T07:13:23.838Z,18.22
2023-10-13T07:23:26.688Z,18.26
2023-10-13T07:33:32.163Z,18.49
2023-10-13T07:43:35.342Z,18.84
2023-10-13T07:53:41.608Z,18.94
2023-10-13T08:03:48.164Z,18.95
2023-10-13T08:14:07.644Z,19.15
2023-10-13T08:24:16.723Z,19.50
2023-10-13T08:34:25.440Z,19.73
2023-10-13T08:54:51.189Z,19.59
2023-10-13T09:05:11.060Z,19.63
2023-10-13T09:15:35.427Z,19.76
2023-10-13T09:25:54.974Z,20.19
2023-10-13T09:36:01.293Z,20.11
2023-10-13T09:46:08.380Z,20.98
2023-10-13T09:56:24.753Z,20.99
2023-10-13T10:06:36.975Z,21.01
2023-10-13T10:17:02.003Z,22.54
2023-10-13T10:27:07.099Z,22.92
2023-10-13T10:37:11.661Z,23.28
2023-10-13T10:47:20.790Z,23.95
2023-10-13T10:57:31.610Z,23.25
2023-10-13T11:07:37.579Z,23.59
2023-10-13T11:17:50.025Z,23.69
2023-10-13T11:28:00.787Z,23.53
2023-10-13T11:38:14.996Z,23.30
2023-10-13T11:48:18.260Z,23.12
2023-10-13T11:58:23.549Z,22.97
2023-10-13T12:08:34.307Z,23.11
2023-10-13T12:28:51.847Z,24.00
2023-10-13T12:39:13.908Z,23.92
2023-10-13T12:49:38.147Z,23.40
2023-10-13T12:59:48.364Z,23.22
2023-10-13T13:09:58.931Z,23.12
2023-10-13T13:20:12.083Z,23.44
2023-10-13T13:30:15.570Z,23.02
2023-10-13T13:40:23.372Z,22.67
2023-10-13T13:50:30.150Z,22.46
2023-10-13T14:00:39.622Z,22.55
2023-10-13T14:10:57.274Z,22.68
2023-10-13T14:21:05.030Z,22.56
2023-10-13T14:31:10.839Z,22.38
2023-10-13T14:41:15.635Z,22.27
2023-10-13T14:51:21.923Z,22.04
2023-10-13T15:01:28.151Z,22.24
2023-10-13T15:11:44.236Z,21.94
2023-10-13T15:21:54.148Z,22.22
2023-10-13T15:32:27.100Z,22.05
2023-10-13T15:42:32.306Z,21.92
2023-10-13T15:52:35.545Z,21.79
2023-10-13T16:02:44.033Z,21.51
2023-10-13T16:12:52.900Z,21.44
2023-10-13T16:23:00.096Z,21.33
2023-10-13T16:33:06.294Z,21.27
2023-10-13T16:43:13.452Z,21.16
2023-10-13T16:53:17.119Z,20.86
2023-10-13T17:03:30.451Z,20.60
2023-10-13T17:13:39.214Z,20.32
2023-10-13T17:23:43.925Z,20.09
2023-10-13T17:33:49.660Z,19.88
2023-10-13T17:43:54.551Z,19.82
2023-10-13T17:54:04.641Z,19.68
2023-10-13T18:04:11.941Z,19.83
2023-10-13T18:14:20.889Z,19.87
2023-10-13T18:24:26.457Z,19.90
2023-10-13T18:34:30.245Z,19.85
2023-10-13T18:44:34.698Z,19.97
2023-10-13T18:54:37.978Z,19.62
2023-10-13T19:04:43.316Z,20.03
2023-10-13T19:14:46.351Z,20.17
2023-10-13T19:24:51.029Z,20.29
2023-10-13T19:34:53.914Z,20.45
2023-10-13T19:45:02.274Z,20.48
2023-10-13T19:55:08.604Z,20.70
2023-10-13T20:05:13.200Z,20.64
2023-10-13T20:15:17.119Z,20.73
2023-10-13T20:25:25.021Z,20.96
2023-10-13T20:35:28.180Z,20.89
2023-10-13T20:45:38.229Z,20.90
2023-10-13T20:55:41.477Z,20.95
2023-10-13T21:05:49.948Z,20.99
2023-10-13T21:15:52.913Z,20.96
2023-10-13T21:25:57.424Z,21.02
2023-10-13T21:36:14.315Z,21.01
2023-10-13T21:46:19.307Z,20.92
2023-10-13T21:56:25.446Z,20.77
2023-10-13T22:06:30.073Z,20.41
2023-10-13T22:16:34.430Z,20.12
2023-10-13T22:26:38.805Z,20.00
2023-10-13T22:36:51.643Z,19.84
2023-10-13T22:47:04.593Z,19.59
2023-10-13T22:57:07.404Z,19.58
2023-10-13T23:07:18.236Z,19.43
2023-10-13T23:17:22.074Z,19.35
2023-10-13T23:27:26.303Z,19.12
2023-10-13T23:37:32.393Z,18.74
2023-10-13T23:47:47.713Z,18.95
2023-10-13T23:57:52.310Z,19.00
